createdAt,value
2023-10-12T00:01:35.607Z,1017.84
2023-10-12T00:29:46.372Z,1017.72
2023-10-12T00:58:02.431Z,1017.64
2023-10-12T01:26:23.528Z,1017.51
2023-10-12T01:54:48.151Z,1017.25
2023-10-12T02:23:04.940Z,1017.36
2023-10-12T02:51:25.024Z,1017.24
2023-10-12T03:19:39.380Z,1017.23
2023-10-12T03:48:08.645Z,1017.38
2023-10-12T04:16:24.230Z,1017.49
2023-10-12T04:44:44.391Z,1017.47
2023-10-12T05:13:04.720Z,1017.69
2023-10-12T05:41:29.316Z,1017.79
2023-10-12T06:09:51.112Z,1017.77
2023-10-12T06:38:17.912Z,1017.86
2023-10-12T07:06:55.775Z,1018.25
2023-10-12T07:35:23.435Z,1018.27
2023-10-12T08:04:02.176Z,1018.29
2023-10-12T08:32:12.858Z,1018.29
2023-10-12T09:00:38.174Z,1018.32
2023-10-12T09:29:04.402Z,1018.34
2023-10-12T09:57:21.901Z,1018.4
2023-10-12T10:25:48.619Z,1018.72
2023-10-12T10:54:14.852Z,1018.64
2023-10-12T11:22:49.901Z,1018.49
2023-10-12T11:51:31.467Z,1018.18
2023-10-12T12:20:00.988Z,1017.83
2023-10-12T12:48:16.737Z,1017.61
2023-10-12T13:16:44.490Z,1017.2
2023-10-12T13:44:58.880Z,1016.97
2023-10-12T14:13:25.215Z,1016.93
2023-10-12T14:41:48.243Z,1016.81
2023-10-12T15:10:08.244Z,1016.73
2023-10-12T15:38:30.596Z,1016.92
2023-10-12T16:06:55.611Z,1016.84
2023-10-12T16:35:17.608Z,1017.07
2023-10-12T17:03:38.876Z,1017.11
2023-10-12T17:31:58.712Z,1017.31
2023-10-12T18:00:26.456Z,1017.74
2023-10-12T18:28:42.772Z,1017.76
2023-10-12T18:57:09.567Z,1017.88
2023-10-12T19:25:36.129Z,1017.89
2023-10-12T19:53:46.003Z,1018.06
2023-10-12T20:22:03.751Z,1018.06
2023-10-12T20:50:20.461Z,1018.03
2023-10-12T21:18:48.870Z,1017.89
2023-10-12T21:47:05.659Z,1017.76
2023-10-12T22:15:27.492Z,1017.69
2023-10-12T22:43:48.346Z,1017.86
2023-10-12T23:12:06.451Z,1017.9
2023-10-12T23:40:30.342Z,1017.95
